Saint-Tite-Des-Caps, Canada
Current Conditions -  °F | °C
As of 7:25 AM on Thursday 23 Oct 2014 (Local Time) from CYOY Reporting Station
Overcast Overcast  
Wind Chill: 46°   Ceiling: 2600
Heat Index: 46°   Visibility: 9mi
Dew Point: 34°   Wind: 2mph
Humidity: 62%   Direction: 60°ENE
Pressure: 30.15"   Gusts: NA
Location:  47.13°N, 70.77°W
Report Text: CYOY 231125Z AUTO 06002KT 9SM BKN026 BKN068 OVC082 08/01 A3015
Loading
Personal Weather Stations






























Interactive Weather Map
Tropical Storm Tracking
New forecast layout! Learn more

10-Day Weather Forecast

Advertisements
Track Severe Weather on mobile